createdAt,value
2022-08-29T00:01:01.074Z,19.84
2022-08-29T00:02:03.735Z,19.72
2022-08-29T00:03:08.464Z,19.82
2022-08-29T00:04:11.035Z,19.92
2022-08-29T00:05:13.634Z,19.82
2022-08-29T00:06:16.200Z,19.82
2022-08-29T00:07:18.685Z,19.85
2022-08-29T00:08:21.288Z,19.95
2022-08-29T00:09:23.437Z,19.99
2022-08-29T00:10:26.568Z,20.07
2022-08-29T00:11:30.075Z,19.95
2022-08-29T00:12:32.605Z,20.09
2022-08-29T00:13:35.366Z,20.16
2022-08-29T00:14:37.620Z,19.91
2022-08-29T00:15:44.915Z,19.98
2022-08-29T00:16:47.567Z,19.94
2022-08-29T00:17:50.855Z,20.06
2022-08-29T00:18:53.040Z,19.90
2022-08-29T00:19:55.282Z,19.77
2022-08-29T00:20:57.449Z,19.77
2022-08-29T00:21:59.709Z,19.86
2022-08-29T00:23:03.793Z,20.22
2022-08-29T00:24:06.054Z,20.13
2022-08-29T00:25:10.593Z,20.18
2022-08-29T00:26:13.044Z,20.12
2022-08-29T00:27:15.387Z,20.14
2022-08-29T00:28:17.753Z,19.79
2022-08-29T00:29:19.949Z,19.90
2022-08-29T00:30:23.281Z,19.94
2022-08-29T00:31:25.508Z,20.08
2022-08-29T00:32:34.851Z,20.21
2022-08-29T00:33:39.172Z,20.26
2022-08-29T00:34:41.618Z,20.15
2022-08-29T00:35:45.355Z,20.05
2022-08-29T00:36:49.263Z,19.87
2022-08-29T00:37:52.192Z,20.02
2022-08-29T00:38:54.414Z,19.85
2022-08-29T00:39:56.934Z,19.84
2022-08-29T00:40:59.168Z,19.84
2022-08-29T00:42:01.463Z,19.81
2022-08-29T00:43:04.968Z,19.77
2022-08-29T00:44:07.108Z,19.74
2022-08-29T00:45:11.336Z,19.89
2022-08-29T00:46:38.784Z,20.18
2022-08-29T00:47:50.124Z,19.91
2022-08-29T00:48:58.978Z,19.87
2022-08-29T00:50:04.368Z,19.67
2022-08-29T00:51:15.079Z,19.93
2022-08-29T00:52:34.068Z,20.15
2022-08-29T00:53:43.429Z,20.10
2022-08-29T00:54:51.073Z,20.01
2022-08-29T00:55:53.328Z,19.82
2022-08-29T00:56:56.791Z,19.90
2022-08-29T00:58:04.614Z,19.87
2022-08-29T00:59:20.141Z,19.97
2022-08-29T01:00:23.936Z,19.69
2022-08-29T01:01:26.539Z,19.64
2022-08-29T01:02:29.252Z,19.61
2022-08-29T01:03:34.178Z,19.77
2022-08-29T01:04:36.950Z,19.58
2022-08-29T01:05:39.244Z,19.40
2022-08-29T01:06:43.129Z,19.50
2022-08-29T01:07:47.291Z,19.65
2022-08-29T01:08:49.487Z,19.43
2022-08-29T01:09:59.752Z,19.49
2022-08-29T01:11:21.969Z,19.51
2022-08-29T01:12:27.406Z,19.43
2022-08-29T01:13:36.318Z,19.59
2022-08-29T01:14:40.134Z,19.52
2022-08-29T01:15:44.142Z,19.45
2022-08-29T01:16:48.339Z,19.57
2022-08-29T01:17:51.436Z,19.63
2022-08-29T01:19:00.352Z,19.66
2022-08-29T01:20:19.308Z,19.74
2022-08-29T01:21:37.665Z,19.87
2022-08-29T01:22:47.620Z,19.77
2022-08-29T01:24:17.301Z,19.90
2022-08-29T01:25:26.343Z,19.88
2022-08-29T01:26:30.389Z,19.67
2022-08-29T01:27:37.238Z,19.78
2022-08-29T01:28:44.199Z,19.73
2022-08-29T01:29:46.872Z,19.50
2022-08-29T01:31:03.024Z,19.71
2022-08-29T01:32:05.822Z,19.29
2022-08-29T01:33:08.103Z,19.18
2022-08-29T01:34:14.308Z,19.26
2022-08-29T01:35:16.541Z,19.19
2022-08-29T01:36:23.463Z,19.55
2022-08-29T01:37:31.295Z,19.50
2022-08-29T01:38:34.346Z,19.22
2022-08-29T01:39:39.261Z,19.34
2022-08-29T01:40:41.511Z,19.16
2022-08-29T01:41:43.948Z,19.23
2022-08-29T01:42:46.474Z,19.21
2022-08-29T01:43:52.911Z,19.50
2022-08-29T01:44:57.931Z,19.40
2022-08-29T01:46:00.091Z,19.20
2022-08-29T01:47:03.584Z,19.19
2022-08-29T01:48:05.827Z,19.11
2022-08-29T01:49:11.051Z,19.26
2022-08-29T01:50:15.097Z,19.20
2022-08-29T01:51:18.047Z,19.03
2022-08-29T01:52:21.097Z,18.93
2022-08-29T01:53:23.567Z,18.69
2022-08-29T01:54:25.813Z,18.87
2022-08-29T01:55:28.091Z,18.88
2022-08-29T01:56:32.953Z,19.23
2022-08-29T01:57:37.731Z,19.24
2022-08-29T01:58:41.095Z,18.76
2022-08-29T01:59:44.102Z,18.91
2022-08-29T02:00:47.131Z,18.77
2022-08-29T02:01:58.943Z,18.95
2022-08-29T02:03:02.079Z,18.74
2022-08-29T02:04:06.534Z,18.92
2022-08-29T02:05:09.659Z,18.88
2022-08-29T02:06:12.954Z,18.97
2022-08-29T02:07:19.943Z,19.04
2022-08-29T02:08:22.097Z,18.96
2022-08-29T02:09:25.811Z,19.04
2022-08-29T02:10:28.546Z,19.05
2022-08-29T02:11:31.434Z,19.15
2022-08-29T02:12:34.392Z,19.06
2022-08-29T02:13:38.579Z,19.10
2022-08-29T02:14:41.095Z,18.87
2022-08-29T02:15:43.364Z,18.82
2022-08-29T02:16:45.619Z,18.86
2022-08-29T02:17:48.473Z,18.80
2022-08-29T02:18:51.184Z,18.68
2022-08-29T02:19:53.511Z,18.72
2022-08-29T02:20:55.845Z,18.71
2022-08-29T02:21:58.696Z,19.07
2022-08-29T02:23:01.021Z,19.08
2022-08-29T02:24:24.009Z,19.13
2022-08-29T02:25:41.956Z,18.76
2022-08-29T02:26:44.917Z,18.80
2022-08-29T02:27:47.101Z,18.69
2022-08-29T02:28:53.480Z,18.70
2022-08-29T02:29:55.631Z,18.71
2022-08-29T02:30:58.382Z,18.68
2022-08-29T02:32:01.031Z,18.72
2022-08-29T02:33:04.975Z,18.55
2022-08-29T02:34:09.591Z,18.86
2022-08-29T02:35:14.633Z,18.82
2022-08-29T02:36:19.803Z,18.84
2022-08-29T02:37:21.972Z,18.74
2022-08-29T02:38:25.063Z,19.03
2022-08-29T02:39:27.245Z,18.87
2022-08-29T02:40:31.680Z,18.93
2022-08-29T02:41:34.476Z,18.97
2022-08-29T02:42:36.666Z,18.94
2022-08-29T02:43:38.912Z,18.75
2022-08-29T02:44:41.086Z,18.72
2022-08-29T02:45:43.882Z,19.06
2022-08-29T02:46:46.784Z,19.09
2022-08-29T02:47:49.172Z,18.94
2022-08-29T02:49:00.994Z,18.98
2022-08-29T02:50:09.888Z,19.21
2022-08-29T02:51:22.995Z,19.34
2022-08-29T02:52:25.205Z,19.04
2022-08-29T02:53:29.312Z,19.05
2022-08-29T02:54:31.488Z,18.89
2022-08-29T02:55:33.878Z,18.98
2022-08-29T02:56:36.726Z,19.03
2022-08-29T02:57:38.890Z,18.95
2022-08-29T02:58:42.068Z,19.15
2022-08-29T02:59:44.195Z,19.06
2022-08-29T03:00:46.507Z,18.96
2022-08-29T03:01:48.726Z,19.20
2022-08-29T03:02:51.513Z,19.26
2022-08-29T03:03:54.283Z,18.96
2022-08-29T03:04:56.868Z,19.08
2022-08-29T03:05:59.200Z,19.10
2022-08-29T03:07:01.428Z,18.86
2022-08-29T03:08:07.186Z,19.21
2022-08-29T03:09:09.436Z,19.02
2022-08-29T03:10:11.576Z,18.95
2022-08-29T03:11:14.048Z,18.85
2022-08-29T03:12:17.540Z,18.88
2022-08-29T03:13:20.198Z,18.99
2022-08-29T03:14:24.028Z,19.12
2022-08-29T03:15:26.714Z,18.99
2022-08-29T03:16:29.059Z,18.95
2022-08-29T03:17:31.337Z,18.94
2022-08-29T03:18:33.534Z,18.90
2022-08-29T03:19:37.233Z,18.83
2022-08-29T03:20:39.727Z,18.90
2022-08-29T03:21:43.600Z,19.14
2022-08-29T03:22:46.720Z,19.00
2022-08-29T03:23:50.555Z,19.14
2022-08-29T03:24:52.831Z,18.92
2022-08-29T03:25:56.076Z,18.97
2022-08-29T03:26:58.779Z,18.92
2022-08-29T03:28:01.337Z,18.87
2022-08-29T03:29:04.535Z,18.94
2022-08-29T03:30:10.820Z,18.96
2022-08-29T03:31:13.274Z,18.67
2022-08-29T03:32:15.667Z,18.70
2022-08-29T03:33:18.047Z,18.79
2022-08-29T03:34:21.407Z,18.78
2022-08-29T03:35:24.191Z,18.80
2022-08-29T03:36:27.014Z,18.69
2022-08-29T03:37:29.364Z,18.74
2022-08-29T03:38:31.620Z,18.83
2022-08-29T03:39:36.022Z,18.99
2022-08-29T03:40:41.185Z,19.08
2022-08-29T03:41:43.499Z,18.85
2022-08-29T03:42:45.880Z,19.00
2022-08-29T03:43:48.147Z,18.86
2022-08-29T03:44:50.345Z,19.03
2022-08-29T03:45:52.940Z,18.84
2022-08-29T03:46:55.204Z,18.86
2022-08-29T03:47:57.446Z,18.90
2022-08-29T03:48:59.772Z,18.90
2022-08-29T03:50:03.018Z,19.12
2022-08-29T03:51:05.365Z,18.99
2022-08-29T03:52:09.559Z,19.07
2022-08-29T03:53:11.812Z,18.97
2022-08-29T03:54:13.988Z,19.16
2022-08-29T03:55:16.627Z,19.38
2022-08-29T03:56:19.215Z,19.39
2022-08-29T03:57:21.477Z,19.33
2022-08-29T03:58:23.815Z,19.48
2022-08-29T03:59:27.324Z,19.57
2022-08-29T04:00:29.595Z,19.51
2022-08-29T04:01:32.014Z,19.59
2022-08-29T04:02:34.352Z,19.50
2022-08-29T04:03:36.634Z,19.60
2022-08-29T04:04:57.714Z,19.59
2022-08-29T04:05:59.793Z,20.03
2022-08-29T04:07:02.843Z,19.56
2022-08-29T04:08:05.355Z,19.41
2022-08-29T04:09:07.546Z,19.47
2022-08-29T04:10:11.589Z,19.59
2022-08-29T04:11:14.833Z,19.65
2022-08-29T04:12:17.561Z,19.53
2022-08-29T04:13:19.741Z,19.41
2022-08-29T04:14:22.239Z,19.36
2022-08-29T04:15:27.645Z,19.42
2022-08-29T04:16:30.819Z,19.38
2022-08-29T04:17:34.198Z,19.50
2022-08-29T04:18:36.470Z,19.44
2022-08-29T04:19:39.035Z,19.53
2022-08-29T04:20:44.961Z,19.60
2022-08-29T04:21:48.812Z,19.36
2022-08-29T04:22:51.950Z,19.40
2022-08-29T04:23:54.161Z,19.44
2022-08-29T04:24:56.352Z,19.51
2022-08-29T04:26:12.737Z,19.33
2022-08-29T04:27:20.772Z,19.02
2022-08-29T04:28:23.752Z,19.12
2022-08-29T04:29:26.056Z,19.25
2022-08-29T04:30:28.596Z,19.34
2022-08-29T04:31:30.809Z,19.42
2022-08-29T04:32:33.210Z,19.32
2022-08-29T04:33:35.367Z,19.22
2022-08-29T04:34:37.527Z,19.32
2022-08-29T04:35:40.723Z,19.39
2022-08-29T04:36:45.364Z,19.44
2022-08-29T04:37:48.061Z,19.35
2022-08-29T04:38:50.560Z,19.15
2022-08-29T04:39:52.767Z,19.10
2022-08-29T04:40:54.922Z,19.20
2022-08-29T04:41:57.080Z,19.40
2022-08-29T04:42:59.526Z,19.47
2022-08-29T04:44:02.438Z,19.53
2022-08-29T04:45:07.406Z,19.71
2022-08-29T04:46:23.418Z,19.46
2022-08-29T04:47:26.486Z,19.42
2022-08-29T04:48:29.302Z,19.36
2022-08-29T04:49:31.902Z,19.26
2022-08-29T04:50:34.112Z,19.38
2022-08-29T04:51:36.755Z,19.18
2022-08-29T04:52:39.745Z,19.37
2022-08-29T04:53:42.755Z,19.46
2022-08-29T04:54:44.943Z,19.47
2022-08-29T04:55:59.258Z,19.65
2022-08-29T04:57:05.435Z,19.47
2022-08-29T04:58:10.249Z,19.46
2022-08-29T04:59:12.777Z,19.41
2022-08-29T05:00:17.954Z,19.60
2022-08-29T05:01:22.625Z,19.66
2022-08-29T05:02:26.167Z,19.47
2022-08-29T05:03:28.474Z,19.43
2022-08-29T05:04:30.650Z,19.51
2022-08-29T05:05:32.847Z,19.44
2022-08-29T05:06:34.981Z,19.47
2022-08-29T05:07:38.160Z,19.54
2022-08-29T05:08:42.808Z,19.81
2022-08-29T05:09:44.962Z,19.66
2022-08-29T05:10:47.751Z,19.66
2022-08-29T05:11:50.015Z,19.64
2022-08-29T05:12:52.194Z,19.63
2022-08-29T05:13:56.408Z,19.68
2022-08-29T05:14:58.688Z,19.88
2022-08-29T05:16:06.273Z,20.02
2022-08-29T05:17:08.482Z,19.68
2022-08-29T05:18:11.976Z,19.96
2022-08-29T05:19:16.131Z,20.00
2022-08-29T05:20:18.426Z,19.91
2022-08-29T05:21:31.918Z,20.36
2022-08-29T05:22:39.297Z,20.04
2022-08-29T05:23:41.546Z,19.84
2022-08-29T05:24:44.445Z,19.95
2022-08-29T05:25:55.560Z,20.13
2022-08-29T05:26:57.813Z,19.91
2022-08-29T05:27:59.974Z,19.71
2022-08-29T05:29:04.067Z,19.99
2022-08-29T05:30:11.056Z,19.82
2022-08-29T05:31:14.596Z,20.02
2022-08-29T05:32:18.843Z,20.06
2022-08-29T05:33:21.563Z,20.07
2022-08-29T05:34:34.666Z,20.06
2022-08-29T05:35:38.407Z,20.00
2022-08-29T05:36:40.597Z,20.10
2022-08-29T05:37:42.773Z,20.15
2022-08-29T05:38:44.960Z,20.16
2022-08-29T05:39:48.364Z,20.29
2022-08-29T05:40:50.591Z,20.16
2022-08-29T05:41:57.342Z,20.47
2022-08-29T05:42:59.515Z,20.28
2022-08-29T05:44:01.832Z,20.61
2022-08-29T05:45:07.647Z,20.67
2022-08-29T05:46:11.294Z,20.47
2022-08-29T05:47:16.419Z,20.58
2022-08-29T05:48:18.565Z,20.43
2022-08-29T05:49:21.530Z,20.69
2022-08-29T05:50:24.236Z,20.92
2022-08-29T05:51:26.436Z,21.04
2022-08-29T05:52:29.195Z,21.04
2022-08-29T05:53:31.474Z,21.03
2022-08-29T05:54:35.930Z,21.04
2022-08-29T05:55:42.237Z,20.79
2022-08-29T05:56:44.735Z,20.47
2022-08-29T05:57:49.982Z,20.69
2022-08-29T05:58:52.957Z,20.80
2022-08-29T05:59:55.205Z,21.04
2022-08-29T06:00:57.650Z,21.14
2022-08-29T06:02:01.479Z,21.13
2022-08-29T06:03:03.809Z,21.13
2022-08-29T06:04:06.336Z,21.24
2022-08-29T06:05:09.070Z,21.31
2022-08-29T06:06:12.838Z,21.36
2022-08-29T06:07:15.385Z,21.37
2022-08-29T06:08:18.153Z,21.43
2022-08-29T06:09:20.395Z,21.48
2022-08-29T06:10:22.666Z,21.48
2022-08-29T06:11:28.178Z,21.68
2022-08-29T06:12:30.347Z,21.59
2022-08-29T06:13:32.582Z,21.69
2022-08-29T06:14:35.778Z,21.82
2022-08-29T06:15:38.705Z,21.78
2022-08-29T06:16:41.042Z,21.56
2022-08-29T06:17:43.835Z,21.82
2022-08-29T06:18:47.131Z,22.06
2022-08-29T06:19:51.718Z,22.24
2022-08-29T06:20:53.848Z,22.02
2022-08-29T06:21:56.233Z,22.21
2022-08-29T06:22:58.610Z,22.31
2022-08-29T06:24:00.825Z,22.49
2022-08-29T06:25:16.522Z,22.33
2022-08-29T06:26:26.276Z,22.17
2022-08-29T06:27:28.601Z,22.31
2022-08-29T06:28:32.427Z,22.45
2022-08-29T06:29:43.136Z,22.19
2022-08-29T06:30:45.580Z,22.41
2022-08-29T06:31:47.836Z,22.49
2022-08-29T06:32:50.049Z,22.54
2022-08-29T06:33:54.287Z,22.56
2022-08-29T06:34:56.445Z,22.45
2022-08-29T06:35:58.691Z,22.40
2022-08-29T06:37:00.883Z,22.44
2022-08-29T06:38:03.030Z,22.47
2022-08-29T06:39:08.590Z,22.54
2022-08-29T06:40:11.303Z,22.51
2022-08-29T06:41:16.269Z,22.61
2022-08-29T06:42:23.072Z,22.67
2022-08-29T06:43:25.351Z,22.64
2022-08-29T06:44:30.978Z,22.75
2022-08-29T06:45:33.257Z,22.46
2022-08-29T06:46:46.042Z,22.84
2022-08-29T06:47:48.198Z,22.68
2022-08-29T06:48:51.346Z,22.84
2022-08-29T06:49:53.536Z,22.62
2022-08-29T06:50:55.796Z,22.80
2022-08-29T06:51:58.748Z,22.58
2022-08-29T06:53:14.756Z,22.62
2022-08-29T06:54:25.379Z,22.52
2022-08-29T06:55:30.424Z,22.39
2022-08-29T06:56:37.200Z,22.76
2022-08-29T06:57:45.455Z,22.95
2022-08-29T06:58:47.850Z,22.65
2022-08-29T06:59:50.106Z,22.86
2022-08-29T07:00:52.280Z,22.69
2022-08-29T07:01:57.392Z,22.89
2022-08-29T07:02:59.703Z,22.92
2022-08-29T07:04:03.198Z,23.11
2022-08-29T07:05:06.974Z,23.45
2022-08-29T07:06:10.154Z,23.23
2022-08-29T07:07:12.357Z,23.23
2022-08-29T07:08:14.525Z,23.20
2022-08-29T07:09:17.262Z,22.79
2022-08-29T07:10:22.582Z,22.65
2022-08-29T07:11:26.734Z,22.84
2022-08-29T07:12:28.960Z,22.87
2022-08-29T07:13:35.159Z,23.21
2022-08-29T07:14:37.719Z,22.98
2022-08-29T07:15:39.897Z,23.12
2022-08-29T07:16:42.238Z,23.20
2022-08-29T07:17:44.444Z,22.91
2022-08-29T07:18:47.424Z,23.02
2022-08-29T07:19:49.677Z,23.35
2022-08-29T07:20:52.565Z,23.28
2022-08-29T07:21:57.949Z,23.62
2022-08-29T07:23:00.514Z,23.90
2022-08-29T07:24:03.386Z,24.19
2022-08-29T07:25:06.412Z,24.31
2022-08-29T07:26:09.006Z,23.97
2022-08-29T07:27:12.750Z,24.06
2022-08-29T07:28:14.987Z,24.54
2022-08-29T07:29:20.981Z,25.21
2022-08-29T07:30:23.293Z,25.13
2022-08-29T07:31:25.581Z,24.95
2022-08-29T07:32:33.465Z,25.33
2022-08-29T07:33:36.043Z,25.33
2022-08-29T07:34:38.334Z,24.74
2022-08-29T07:35:40.785Z,25.26
2022-08-29T07:36:43.148Z,25.38
2022-08-29T07:37:50.664Z,25.85
2022-08-29T07:38:53.183Z,25.83
2022-08-29T07:39:55.477Z,26.01
2022-08-29T07:41:02.862Z,25.99
2022-08-29T07:42:05.270Z,25.64
2022-08-29T07:43:07.528Z,25.92
2022-08-29T07:44:10.557Z,25.92
2022-08-29T07:45:13.417Z,25.87
2022-08-29T07:46:18.315Z,25.93
2022-08-29T07:47:21.000Z,25.49
2022-08-29T07:48:25.391Z,25.75
2022-08-29T07:49:40.623Z,26.13
2022-08-29T07:50:43.528Z,26.12
2022-08-29T07:51:45.850Z,26.16
2022-08-29T07:52:48.481Z,26.21
2022-08-29T07:53:53.804Z,26.64
2022-08-29T07:54:56.654Z,26.36
2022-08-29T07:55:58.801Z,26.35
2022-08-29T07:57:01.057Z,26.54
2022-08-29T07:58:04.885Z,26.77
2022-08-29T07:59:07.317Z,26.53
2022-08-29T08:00:11.808Z,26.76
2022-08-29T08:01:16.851Z,26.90
2022-08-29T08:02:23.632Z,27.06
2022-08-29T08:03:27.130Z,27.03
2022-08-29T08:04:29.973Z,27.42
2022-08-29T08:05:32.330Z,27.40
2022-08-29T08:06:36.683Z,27.82
2022-08-29T08:07:40.274Z,27.97
2022-08-29T08:08:42.649Z,27.59
2022-08-29T08:09:45.091Z,27.86
2022-08-29T08:10:51.910Z,28.58
2022-08-29T08:11:54.462Z,28.55
2022-08-29T08:12:56.648Z,28.37
2022-08-29T08:13:58.994Z,28.79
2022-08-29T08:15:01.304Z,29.02
2022-08-29T08:16:10.078Z,29.54
2022-08-29T08:17:12.373Z,29.47
2022-08-29T08:18:14.793Z,29.53
2022-08-29T08:19:18.185Z,29.72
2022-08-29T08:20:20.516Z,29.84
2022-08-29T08:23:02.747Z,29.10
2022-08-29T08:24:05.263Z,29.26
2022-08-29T08:25:07.950Z,29.14
2022-08-29T08:26:11.997Z,28.83
2022-08-29T08:27:14.228Z,28.59
2022-08-29T08:28:18.738Z,28.47
2022-08-29T08:29:20.942Z,28.19
2022-08-29T08:30:23.165Z,27.83
2022-08-29T08:31:28.066Z,27.92
2022-08-29T08:32:32.365Z,28.01
2022-08-29T08:33:38.833Z,28.02
2022-08-29T08:34:41.017Z,27.70
2022-08-29T08:35:46.962Z,27.45
2022-08-29T08:36:50.442Z,27.37
2022-08-29T08:37:53.430Z,27.22
2022-08-29T08:38:57.136Z,27.46
2022-08-29T08:40:00.133Z,27.36
2022-08-29T08:41:27.454Z,27.70
2022-08-29T08:42:42.364Z,27.47
2022-08-29T08:43:54.027Z,27.53
2022-08-29T08:44:58.930Z,27.28
2022-08-29T08:46:01.247Z,26.78
2022-08-29T08:47:07.541Z,27.36
2022-08-29T08:48:23.370Z,27.28
2022-08-29T08:49:36.637Z,27.36
2022-08-29T08:51:23.581Z,27.20
2022-08-29T08:52:37.553Z,26.93
2022-08-29T08:53:44.812Z,26.99
2022-08-29T08:54:53.428Z,27.11
2022-08-29T08:55:59.793Z,27.20
2022-08-29T08:57:13.109Z,27.09
2022-08-29T08:58:34.610Z,27.31
2022-08-29T08:59:43.536Z,27.48
2022-08-29T09:00:51.378Z,27.49
2022-08-29T09:02:07.304Z,27.34
2022-08-29T09:03:43.973Z,27.35
2022-08-29T09:04:58.097Z,27.03
2022-08-29T09:06:22.424Z,27.51
2022-08-29T09:07:43.048Z,27.30
2022-08-29T09:09:15.441Z,27.51
2022-08-29T09:10:44.023Z,27.42
2022-08-29T09:12:23.777Z,27.95
2022-08-29T09:13:56.966Z,28.53
2022-08-29T09:15:02.176Z,28.04
2022-08-29T09:16:11.122Z,28.19
2022-08-29T09:17:30.633Z,28.70
2022-08-29T09:18:41.731Z,28.73
2022-08-29T09:19:46.373Z,28.82
2022-08-29T09:20:48.886Z,28.65
2022-08-29T09:21:55.249Z,29.06
2022-08-29T09:23:31.513Z,29.55
2022-08-29T09:24:46.685Z,29.52
2022-08-29T09:25:49.683Z,29.36
2022-08-29T09:26:51.924Z,29.51
2022-08-29T09:27:54.111Z,29.37
2022-08-29T09:28:57.185Z,29.26
2022-08-29T09:30:13.422Z,29.37
2022-08-29T09:31:24.927Z,29.58
2022-08-29T09:32:27.546Z,29.19
2022-08-29T09:33:44.595Z,29.51
2022-08-29T09:35:07.899Z,29.26
2022-08-29T09:36:15.283Z,29.41
2022-08-29T09:37:23.304Z,29.39
2022-08-29T09:38:28.111Z,29.02
2022-08-29T09:39:33.769Z,29.17
2022-08-29T09:40:55.745Z,29.26
2022-08-29T09:42:14.307Z,29.20
2022-08-29T09:43:21.504Z,29.29
2022-08-29T09:44:35.704Z,29.53
2022-08-29T09:45:38.139Z,29.37
2022-08-29T09:46:40.371Z,29.51
2022-08-29T09:47:42.609Z,29.47
2022-08-29T09:48:46.430Z,29.30
2022-08-29T09:50:07.191Z,29.85
2022-08-29T09:51:09.575Z,30.13
2022-08-29T09:52:23.476Z,30.31
2022-08-29T09:53:26.292Z,29.85
2022-08-29T09:54:32.862Z,30.43
2022-08-29T09:55:42.558Z,30.31
2022-08-29T09:57:10.750Z,30.94
2022-08-29T09:58:13.683Z,31.04
2022-08-29T09:59:34.691Z,31.58
2022-08-29T10:00:41.037Z,31.98
2022-08-29T10:01:43.644Z,32.26
2022-08-29T10:02:49.087Z,32.95
2022-08-29T10:04:02.426Z,33.33
2022-08-29T10:05:13.180Z,33.50
2022-08-29T10:06:22.601Z,33.32
2022-08-29T10:07:30.507Z,33.15
2022-08-29T10:08:38.598Z,33.21
2022-08-29T10:09:40.994Z,33.26
2022-08-29T10:10:54.275Z,33.97
2022-08-29T10:12:07.699Z,33.53
2022-08-29T10:13:34.401Z,33.21
2022-08-29T10:14:54.555Z,33.90
2022-08-29T10:16:18.829Z,33.99
2022-08-29T10:17:54.494Z,33.74
2022-08-29T10:19:33.145Z,32.88
2022-08-29T10:21:05.140Z,32.68
2022-08-29T10:22:39.425Z,32.06
2022-08-29T10:23:41.592Z,31.21
2022-08-29T10:24:53.429Z,31.08
2022-08-29T10:26:00.935Z,30.22
2022-08-29T10:27:18.024Z,30.01
2022-08-29T10:28:31.775Z,29.75
2022-08-29T10:29:40.011Z,29.11
2022-08-29T10:30:45.190Z,28.82
2022-08-29T10:32:13.286Z,28.91
2022-08-29T10:33:18.380Z,28.24
2022-08-29T10:34:44.074Z,28.49
2022-08-29T10:35:55.929Z,28.36
2022-08-29T10:37:04.410Z,28.44
2022-08-29T10:38:22.797Z,28.48
2022-08-29T10:39:50.623Z,28.61
2022-08-29T10:41:26.738Z,28.38
2022-08-29T10:42:34.262Z,27.95
2022-08-29T10:43:47.389Z,28.22
2022-08-29T10:45:16.806Z,28.28
2022-08-29T10:46:44.119Z,28.58
2022-08-29T10:48:11.084Z,28.39
2022-08-29T10:49:48.293Z,28.71
2022-08-29T10:51:21.604Z,28.70
2022-08-29T10:52:39.686Z,28.28
2022-08-29T10:53:47.162Z,28.31
2022-08-29T10:55:16.837Z,28.79
2022-08-29T10:56:30.630Z,28.38
2022-08-29T10:57:58.706Z,28.64
2022-08-29T10:59:21.101Z,28.96
2022-08-29T11:00:53.086Z,28.80
2022-08-29T11:02:22.932Z,28.79
2022-08-29T11:03:41.950Z,29.02
2022-08-29T11:04:51.769Z,28.84
2022-08-29T11:06:01.212Z,29.06
2022-08-29T11:07:16.179Z,29.00
2022-08-29T11:08:26.631Z,28.77
2022-08-29T11:09:35.073Z,28.73
2022-08-29T11:10:43.477Z,28.85
2022-08-29T11:11:59.192Z,29.16
2022-08-29T11:13:10.203Z,29.71
2022-08-29T11:14:31.845Z,29.47
2022-08-29T11:15:48.523Z,29.86
2022-08-29T11:16:52.749Z,30.37
2022-08-29T11:18:05.614Z,31.09
2022-08-29T11:19:22.625Z,31.05
2022-08-29T11:20:31.906Z,31.21
2022-08-29T11:21:47.076Z,31.51
2022-08-29T11:23:18.351Z,31.43
2022-08-29T11:24:22.975Z,30.90
2022-08-29T11:25:27.563Z,30.61
2022-08-29T11:26:45.512Z,31.10
2022-08-29T11:28:06.443Z,31.13
2022-08-29T11:29:24.642Z,30.90
2022-08-29T11:30:48.421Z,31.12
2022-08-29T11:32:04.278Z,31.17
2022-08-29T11:33:35.799Z,31.30
2022-08-29T11:35:03.806Z,30.97
2022-08-29T11:36:29.243Z,32.14
2022-08-29T11:37:59.690Z,32.47
2022-08-29T11:39:23.412Z,33.38
2022-08-29T11:42:50.663Z,34.98
2022-08-29T11:43:59.078Z,33.41
2022-08-29T11:45:03.738Z,33.40
2022-08-29T11:46:08.061Z,34.07
2022-08-29T11:47:41.069Z,34.31
2022-08-29T11:48:49.137Z,33.75
2022-08-29T11:49:52.188Z,33.51
2022-08-29T11:52:12.725Z,33.65
2022-08-29T11:53:20.877Z,33.16
2022-08-29T11:54:28.818Z,33.59
2022-08-29T11:55:41.308Z,33.24
2022-08-29T11:56:43.553Z,33.17
2022-08-29T11:57:49.818Z,33.47
2022-08-29T11:58:55.851Z,32.93
2022-08-29T12:00:00.257Z,32.79
2022-08-29T12:01:02.905Z,32.36
2022-08-29T12:02:08.728Z,33.08
2022-08-29T12:03:33.081Z,34.23
2022-08-29T12:05:16.942Z,34.40
2022-08-29T12:06:26.613Z,35.17
2022-08-29T12:07:37.632Z,35.38
2022-08-29T12:08:46.770Z,36.14
2022-08-29T12:09:56.283Z,36.40
2022-08-29T12:10:59.779Z,36.62
2022-08-29T12:12:05.006Z,37.60
2022-08-29T12:13:07.382Z,37.56
2022-08-29T12:14:09.672Z,37.94
2022-08-29T12:15:27.262Z,38.80
2022-08-29T12:16:46.463Z,38.42
2022-08-29T12:18:02.111Z,37.33
2022-08-29T12:19:05.496Z,37.46
2022-08-29T12:20:08.045Z,37.16
2022-08-29T12:21:34.075Z,36.62
2022-08-29T12:22:51.487Z,36.25
2022-08-29T12:23:53.811Z,35.37
2022-08-29T12:24:57.493Z,35.51
2022-08-29T12:26:21.575Z,35.25
2022-08-29T12:28:05.898Z,35.08
2022-08-29T12:29:18.133Z,34.18
2022-08-29T12:30:22.347Z,33.67
2022-08-29T12:32:18.001Z,33.78
2022-08-29T12:34:02.117Z,33.80
2022-08-29T12:35:17.251Z,33.69
2022-08-29T12:36:37.870Z,33.48
2022-08-29T12:37:55.157Z,33.51
2022-08-29T12:39:03.277Z,33.47
2022-08-29T12:40:31.083Z,34.11
2022-08-29T12:41:42.581Z,34.50
2022-08-29T12:43:11.037Z,35.21
2022-08-29T12:44:16.717Z,35.46
2022-08-29T12:45:27.085Z,34.88
2022-08-29T12:46:40.435Z,34.41
2022-08-29T12:47:51.490Z,35.26
2022-08-29T12:49:13.750Z,35.20
2022-08-29T12:50:26.958Z,35.85
2022-08-29T12:51:40.482Z,35.67
2022-08-29T12:52:42.757Z,35.61
2022-08-29T12:53:49.784Z,35.34
2022-08-29T12:54:56.136Z,35.68
2022-08-29T12:56:03.862Z,35.27
2022-08-29T12:57:07.942Z,35.23
2022-08-29T12:58:12.566Z,35.30
2022-08-29T12:59:20.240Z,35.03
2022-08-29T13:00:29.707Z,35.11
2022-08-29T13:01:37.908Z,34.91
2022-08-29T13:02:40.494Z,34.14
2022-08-29T13:03:42.739Z,34.67
2022-08-29T13:04:45.075Z,35.41
2022-08-29T13:05:47.824Z,35.92
2022-08-29T13:07:02.003Z,35.79
2022-08-29T13:08:10.980Z,34.99
2022-08-29T13:09:28.884Z,35.39
2022-08-29T13:10:31.172Z,35.57
2022-08-29T13:11:33.932Z,35.76
2022-08-29T13:12:36.766Z,35.84
2022-08-29T13:13:39.895Z,35.65
2022-08-29T13:14:57.794Z,35.72
2022-08-29T13:16:02.213Z,35.09
2022-08-29T13:17:13.416Z,34.86
2022-08-29T13:18:16.528Z,34.30
2022-08-29T13:19:22.119Z,34.39
2022-08-29T13:20:40.906Z,33.82
2022-08-29T13:21:43.454Z,33.31
2022-08-29T13:22:45.606Z,33.41
2022-08-29T13:23:58.860Z,33.82
2022-08-29T13:25:05.623Z,33.02
2022-08-29T13:26:10.876Z,33.05
2022-08-29T13:27:22.031Z,32.64
2022-08-29T13:28:35.951Z,32.33
2022-08-29T13:29:42.337Z,32.12
2022-08-29T13:30:48.801Z,31.48
2022-08-29T13:32:23.918Z,31.87
2022-08-29T13:33:35.057Z,32.64
2022-08-29T13:34:38.017Z,32.69
2022-08-29T13:35:40.296Z,33.38
2022-08-29T13:37:02.261Z,33.82
2022-08-29T13:38:30.732Z,34.40
2022-08-29T13:39:43.531Z,34.26
2022-08-29T13:40:53.604Z,33.94
2022-08-29T13:42:01.637Z,33.91
2022-08-29T13:43:06.070Z,34.03
2022-08-29T13:44:20.630Z,34.10
2022-08-29T13:45:24.622Z,34.55
2022-08-29T13:46:30.640Z,34.87
2022-08-29T13:47:41.116Z,35.33
2022-08-29T13:48:44.309Z,35.72
2022-08-29T13:49:47.223Z,35.67
2022-08-29T13:50:49.415Z,35.22
2022-08-29T13:51:52.102Z,34.90
2022-08-29T13:52:55.758Z,34.47
2022-08-29T13:53:58.167Z,34.00
2022-08-29T13:55:00.457Z,33.69
2022-08-29T13:56:03.260Z,33.43
2022-08-29T13:57:08.063Z,33.58
2022-08-29T13:58:12.726Z,33.59
2022-08-29T13:59:19.109Z,33.71
2022-08-29T14:00:32.480Z,33.57
2022-08-29T14:03:01.406Z,33.82
2022-08-29T14:04:27.393Z,34.04
2022-08-29T14:05:26.314Z,33.66
2022-08-29T14:06:28.554Z,33.60
2022-08-29T14:07:32.875Z,33.57
2022-08-29T14:08:35.223Z,33.50
2022-08-29T14:09:40.686Z,33.53
2022-08-29T14:10:42.923Z,33.55
2022-08-29T14:11:45.629Z,33.79
2022-08-29T14:12:47.861Z,33.05
2022-08-29T14:13:50.087Z,33.13
2022-08-29T14:14:52.636Z,32.98
2022-08-29T14:15:54.920Z,33.46
2022-08-29T14:16:57.712Z,33.50
2022-08-29T14:18:00.166Z,33.91
2022-08-29T14:19:02.525Z,33.96
2022-08-29T14:20:06.866Z,34.07
2022-08-29T14:21:09.421Z,33.63
2022-08-29T14:22:11.761Z,33.90
2022-08-29T14:23:14.132Z,33.71
2022-08-29T14:24:16.421Z,33.37
2022-08-29T14:25:20.120Z,33.98
2022-08-29T14:26:22.383Z,34.25
2022-08-29T14:27:24.723Z,34.08
2022-08-29T14:28:26.922Z,34.03
2022-08-29T14:29:31.025Z,34.07
2022-08-29T14:30:33.432Z,33.29
2022-08-29T14:31:35.826Z,33.26
2022-08-29T14:32:38.743Z,33.03